sensor_id;sensor_type;location;lat;lon;timestamp;P1;P2;P0
70255;PMS5003;57669;52.624;-1.688;2023-02-08T00:00:13;50;48;
70255;PMS5003;57669;52.624;-1.688;2023-02-08T00:02:38;50;47;
70255;PMS5003;57669;52.624;-1.688;2023-02-08T00:05:04;49;45;
70255;PMS5003;57669;52.624;-1.688;2023-02-08T00:07:29;52;48;
70255;PMS5003;57669;52.624;-1.688;2023-02-08T00:09:54;54;52;
70255;PMS5003;57669;52.624;-1.688;2023-02-08T00:12:20;56;49;
70255;PMS5003;57669;52.624;-1.688;2023-02-08T00:14:45;54;52;
70255;PMS5003;57669;52.624;-1.688;2023-02-08T00:17:10;51;49;
70255;PMS5003;57669;52.624;-1.688;2023-02-08T00:19:36;48;45;
70255;PMS5003;57669;52.624;-1.688;2023-02-08T00:22:01;53;50;
70255;PMS5003;57669;52.624;-1.688;2023-02-08T00:24:26;52;49;
70255;PMS5003;57669;52.624;-1.688;2023-02-08T00:26:52;51;47;
70255;PMS5003;57669;52.624;-1.688;2023-02-08T00:29:18;50;46;
70255;PMS5003;57669;52.624;-1.688;2023-02-08T00:31:43;49;45;
70255;PMS5003;57669;52.624;-1.688;2023-02-08T00:34:08;51;48;
70255;PMS5003;57669;52.624;-1.688;2023-02-08T00:36:34;52;47;
70255;PMS5003;57669;52.624;-1.688;2023-02-08T00:38:59;51;47;
70255;PMS5003;57669;52.624;-1.688;2023-02-08T00:41:24;56;51;
70255;PMS5003;57669;52.624;-1.688;2023-02-08T00:43:49;51;46;
70255;PMS5003;57669;52.624;-1.688;2023-02-08T00:46:15;49;47;
70255;PMS5003;57669;52.624;-1.688;2023-02-08T00:48:41;49;42;
70255;PMS5003;57669;52.624;-1.688;2023-02-08T00:51:07;58;52;
70255;PMS5003;57669;52.624;-1.688;2023-02-08T00:53:33;43;42;
70255;PMS5003;57669;52.624;-1.688;2023-02-08T00:55:57;60;53;
70255;PMS5003;57669;52.624;-1.688;2023-02-08T00:58:22;41;41;
70255;PMS5003;57669;52.624;-1.688;2023-02-08T01:00:49;55;50;
70255;PMS5003;57669;52.624;-1.688;2023-02-08T01:03:13;50;46;
70255;PMS5003;57669;52.624;-1.688;2023-02-08T01:05:39;51;45;
70255;PMS5003;57669;52.624;-1.688;2023-02-08T01:08:04;57;50;
70255;PMS5003;57669;52.624;-1.688;2023-02-08T01:10:29;46;45;
70255;PMS5003;57669;52.624;-1.688;2023-02-08T01:12:55;55;52;
70255;PMS5003;57669;52.624;-1.688;2023-02-08T01:15:20;47;43;
70255;PMS5003;57669;52.624;-1.688;2023-02-08T01:17:46;53;50;
70255;PMS5003;57669;52.624;-1.688;2023-02-08T01:20:11;63;58;
70255;PMS5003;57669;52.624;-1.688;2023-02-08T01:22:37;61;58;
70255;PMS5003;57669;52.624;-1.688;2023-02-08T01:25:03;55;53;
70255;PMS5003;57669;52.624;-1.688;2023-02-08T01:27:28;53;52;
70255;PMS5003;57669;52.624;-1.688;2023-02-08T01:29:54;50;45;
70255;PMS5003;57669;52.624;-1.688;2023-02-08T01:32:19;55;51;
70255;PMS5003;57669;52.624;-1.688;2023-02-08T01:34:45;52;51;
70255;PMS5003;57669;52.624;-1.688;2023-02-08T01:37:10;57;54;
70255;PMS5003;57669;52.624;-1.688;2023-02-08T01:39:35;55;54;
70255;PMS5003;57669;52.624;-1.688;2023-02-08T01:42:01;57;51;
70255;PMS5003;57669;52.624;-1.688;2023-02-08T01:46:52;55;53;
70255;PMS5003;57669;52.624;-1.688;2023-02-08T01:49:18;66;59;
70255;PMS5003;57669;52.624;-1.688;2023-02-08T01:51:44;53;50;
70255;PMS5003;57669;52.624;-1.688;2023-02-08T01:54:10;56;53;
70255;PMS5003;57669;52.624;-1.688;2023-02-08T01:56:35;45;45;
70255;PMS5003;57669;52.624;-1.688;2023-02-08T01:59:02;47;46;
70255;PMS5003;57669;52.624;-1.688;2023-02-08T02:01:25;55;54;
70255;PMS5003;57669;52.624;-1.688;2023-02-08T02:03:51;54;52;
70255;PMS5003;57669;52.624;-1.688;2023-02-08T02:06:17;54;51;
70255;PMS5003;57669;52.624;-1.688;2023-02-08T02:08:45;61;52;
70255;PMS5003;57669;52.624;-1.688;2023-02-08T02:11:08;60;59;
70255;PMS5003;57669;52.624;-1.688;2023-02-08T02:13:33;53;51;
70255;PMS5003;57669;52.624;-1.688;2023-02-08T02:15:58;66;56;
70255;PMS5003;57669;52.624;-1.688;2023-02-08T02:18:24;60;56;
70255;PMS5003;57669;52.624;-1.688;2023-02-08T02:20:55;51;43;
70255;PMS5003;57669;52.624;-1.688;2023-02-08T02:28:13;44;43;
70255;PMS5003;57669;52.624;-1.688;2023-02-08T02:30:36;49;49;
70255;PMS5003;57669;52.624;-1.688;2023-02-08T02:32:59;52;48;
70255;PMS5003;57669;52.624;-1.688;2023-02-08T02:35:24;50;47;
70255;PMS5003;57669;52.624;-1.688;2023-02-08T02:37:51;50;48;
70255;PMS5003;57669;52.624;-1.688;2023-02-08T02:40:20;48;46;
70255;PMS5003;57669;52.624;-1.688;2023-02-08T02:42:41;54;52;
70255;PMS5003;57669;52.624;-1.688;2023-02-08T02:45:05;62;56;
70255;PMS5003;57669;52.624;-1.688;2023-02-08T02:47:31;54;50;
70255;PMS5003;57669;52.624;-1.688;2023-02-08T02:49:57;52;51;
70255;PMS5003;57669;52.624;-1.688;2023-02-08T02:52:23;63;58;
70255;PMS5003;57669;52.624;-1.688;2023-02-08T02:54:48;58;50;
70255;PMS5003;57669;52.624;-1.688;2023-02-08T02:57:13;55;50;
70255;PMS5003;57669;52.624;-1.688;2023-02-08T02:59:37;56;53;
70255;PMS5003;57669;52.624;-1.688;2023-02-08T03:02:03;53;52;
70255;PMS5003;57669;52.624;-1.688;2023-02-08T03:06:57;65;59;
70255;PMS5003;57669;52.624;-1.688;2023-02-08T03:11:47;55;53;
70255;PMS5003;57669;52.624;-1.688;2023-02-08T03:14:17;60;57;
70255;PMS5003;57669;52.624;-1.688;2023-02-08T03:16:40;64;59;
70255;PMS5003;57669;52.624;-1.688;2023-02-08T03:19:04;60;57;
70255;PMS5003;57669;52.624;-1.688;2023-02-08T03:21:29;55;53;
70255;PMS5003;57669;52.624;-1.688;2023-02-08T03:23:53;62;57;
70255;PMS5003;57669;52.624;-1.688;2023-02-08T03:26:18;56;54;
70255;PMS5003;57669;52.624;-1.688;2023-02-08T03:28:45;56;54;
70255;PMS5003;57669;52.624;-1.688;2023-02-08T03:31:10;64;63;
70255;PMS5003;57669;52.624;-1.688;2023-02-08T03:33:34;59;57;
70255;PMS5003;57669;52.624;-1.688;2023-02-08T03:36:00;62;59;
70255;PMS5003;57669;52.624;-1.688;2023-02-08T03:38:25;67;61;
70255;PMS5003;57669;52.624;-1.688;2023-02-08T03:40:50;72;65;
70255;PMS5003;57669;52.624;-1.688;2023-02-08T03:43:16;71;67;
70255;PMS5003;57669;52.624;-1.688;2023-02-08T03:45:41;57;54;
70255;PMS5003;57669;52.624;-1.688;2023-02-08T03:48:07;78;76;
70255;PMS5003;57669;52.624;-1.688;2023-02-08T03:50:32;66;63;
70255;PMS5003;57669;52.624;-1.688;2023-02-08T03:52:57;66;66;
70255;PMS5003;57669;52.624;-1.688;2023-02-08T03:55:24;63;59;
70255;PMS5003;57669;52.624;-1.688;2023-02-08T03:57:49;71;66;
70255;PMS5003;57669;52.624;-1.688;2023-02-08T04:00:15;62;57;
70255;PMS5003;57669;52.624;-1.688;2023-02-08T04:02:40;63;59;
70255;PMS5003;57669;52.624;-1.688;2023-02-08T04:05:05;59;56;
70255;PMS5003;57669;52.624;-1.688;2023-02-08T04:07:31;63;57;
70255;PMS5003;57669;52.624;-1.688;2023-02-08T04:09:56;65;58;
70255;PMS5003;57669;52.624;-1.688;2023-02-08T04:12:21;56;54;
70255;PMS5003;57669;52.624;-1.688;2023-02-08T04:14:47;65;63;
70255;PMS5003;57669;52.624;-1.688;2023-02-08T04:17:12;71;67;
70255;PMS5003;57669;52.624;-1.688;2023-02-08T04:19:38;65;62;
70255;PMS5003;57669;52.624;-1.688;2023-02-08T04:22:04;69;64;
70255;PMS5003;57669;52.624;-1.688;2023-02-08T04:24:29;68;65;
70255;PMS5003;57669;52.624;-1.688;2023-02-08T04:26:55;70;68;
70255;PMS5003;57669;52.624;-1.688;2023-02-08T04:29:20;66;63;
70255;PMS5003;57669;52.624;-1.688;2023-02-08T04:31:45;74;68;
70255;PMS5003;57669;52.624;-1.688;2023-02-08T04:34:11;65;63;
70255;PMS5003;57669;52.624;-1.688;2023-02-08T04:36:36;64;60;
70255;PMS5003;57669;52.624;-1.688;2023-02-08T04:39:02;73;69;
70255;PMS5003;57669;52.624;-1.688;2023-02-08T04:41:27;79;74;
70255;PMS5003;57669;52.624;-1.688;2023-02-08T04:43:53;92;84;
70255;PMS5003;57669;52.624;-1.688;2023-02-08T04:46:18;74;73;
70255;PMS5003;57669;52.624;-1.688;2023-02-08T04:48:44;90;84;
70255;PMS5003;57669;52.624;-1.688;2023-02-08T04:51:09;74;71;
70255;PMS5003;57669;52.624;-1.688;2023-02-08T04:53:35;91;86;
70255;PMS5003;57669;52.624;-1.688;2023-02-08T04:56:01;88;84;
70255;PMS5003;57669;52.624;-1.688;2023-02-08T04:58:26;72;68;
70255;PMS5003;57669;52.624;-1.688;2023-02-08T05:00:52;80;72;
70255;PMS5003;57669;52.624;-1.688;2023-02-08T05:03:18;76;70;
70255;PMS5003;57669;52.624;-1.688;2023-02-08T05:05:43;69;64;
70255;PMS5003;57669;52.624;-1.688;2023-02-08T05:08:09;76;69;
70255;PMS5003;57669;52.624;-1.688;2023-02-08T05:10:34;77;74;
70255;PMS5003;57669;52.624;-1.688;2023-02-08T05:13:00;76;74;
70255;PMS5003;57669;52.624;-1.688;2023-02-08T05:15:26;91;83;
70255;PMS5003;57669;52.624;-1.688;2023-02-08T05:17:51;87;82;
70255;PMS5003;57669;52.624;-1.688;2023-02-08T05:20:17;84;80;
70255;PMS5003;57669;52.624;-1.688;2023-02-08T05:22:42;89;87;
70255;PMS5003;57669;52.624;-1.688;2023-02-08T05:25:08;78;74;
70255;PMS5003;57669;52.624;-1.688;2023-02-08T05:27:34;90;82;
70255;PMS5003;57669;52.624;-1.688;2023-02-08T05:29:59;83;77;
70255;PMS5003;57669;52.624;-1.688;2023-02-08T05:32:24;85;80;
70255;PMS5003;57669;52.624;-1.688;2023-02-08T05:34:50;76;74;
70255;PMS5003;57669;52.624;-1.688;2023-02-08T05:37:15;83;80;
70255;PMS5003;57669;52.624;-1.688;2023-02-08T05:39:41;81;78;
70255;PMS5003;57669;52.624;-1.688;2023-02-08T05:42:06;97;91;
70255;PMS5003;57669;52.624;-1.688;2023-02-08T05:44:32;79;74;
70255;PMS5003;57669;52.624;-1.688;2023-02-08T05:46:58;83;79;
70255;PMS5003;57669;52.624;-1.688;2023-02-08T05:49:23;76;73;
70255;PMS5003;57669;52.624;-1.688;2023-02-08T05:51:48;81;76;
70255;PMS5003;57669;52.624;-1.688;2023-02-08T05:54:14;70;68;
70255;PMS5003;57669;52.624;-1.688;2023-02-08T05:56:39;74;71;
70255;PMS5003;57669;52.624;-1.688;2023-02-08T05:59:05;86;77;
70255;PMS5003;57669;52.624;-1.688;2023-02-08T06:01:30;66;64;
70255;PMS5003;57669;52.624;-1.688;2023-02-08T06:03:55;71;70;
70255;PMS5003;57669;52.624;-1.688;2023-02-08T06:06:21;76;74;
70255;PMS5003;57669;52.624;-1.688;2023-02-08T06:08:46;79;73;
70255;PMS5003;57669;52.624;-1.688;2023-02-08T06:11:11;80;73;
70255;PMS5003;57669;52.624;-1.688;2023-02-08T06:13:37;82;78;
70255;PMS5003;57669;52.624;-1.688;2023-02-08T06:16:03;77;72;
70255;PMS5003;57669;52.624;-1.688;2023-02-08T06:18:28;73;71;
70255;PMS5003;57669;52.624;-1.688;2023-02-08T06:20:53;74;67;
70255;PMS5003;57669;52.624;-1.688;2023-02-08T06:23:19;84;81;
70255;PMS5003;57669;52.624;-1.688;2023-02-08T06:25:44;74;70;
70255;PMS5003;57669;52.624;-1.688;2023-02-08T06:28:10;73;66;
70255;PMS5003;57669;52.624;-1.688;2023-02-08T06:30:36;90;84;
70255;PMS5003;57669;52.624;-1.688;2023-02-08T06:33:01;79;72;
70255;PMS5003;57669;52.624;-1.688;2023-02-08T06:35:26;77;72;
70255;PMS5003;57669;52.624;-1.688;2023-02-08T06:37:52;68;64;
70255;PMS5003;57669;52.624;-1.688;2023-02-08T06:40:17;84;75;
70255;PMS5003;57669;52.624;-1.688;2023-02-08T06:42:43;77;73;
70255;PMS5003;57669;52.624;-1.688;2023-02-08T06:45:09;70;66;
70255;PMS5003;57669;52.624;-1.688;2023-02-08T06:47:34;79;73;
70255;PMS5003;57669;52.624;-1.688;2023-02-08T06:50:00;74;68;
70255;PMS5003;57669;52.624;-1.688;2023-02-08T06:52:25;86;82;
70255;PMS5003;57669;52.624;-1.688;2023-02-08T06:54:51;80;76;
70255;PMS5003;57669;52.624;-1.688;2023-02-08T06:57:16;80;79;
70255;PMS5003;57669;52.624;-1.688;2023-02-08T06:59:41;90;82;
70255;PMS5003;57669;52.624;-1.688;2023-02-08T07:02:08;87;78;
70255;PMS5003;57669;52.624;-1.688;2023-02-08T07:04:31;74;67;
70255;PMS5003;57669;52.624;-1.688;2023-02-08T07:06:56;71;68;
70255;PMS5003;57669;52.624;-1.688;2023-02-08T07:09:22;82;81;
70255;PMS5003;57669;52.624;-1.688;2023-02-08T07:11:48;76;73;
70255;PMS5003;57669;52.624;-1.688;2023-02-08T07:14:14;74;70;
70255;PMS5003;57669;52.624;-1.688;2023-02-08T07:16:39;82;75;
70255;PMS5003;57669;52.624;-1.688;2023-02-08T07:19:05;79;74;
70255;PMS5003;57669;52.624;-1.688;2023-02-08T07:21:30;66;66;
70255;PMS5003;57669;52.624;-1.688;2023-02-08T07:23:55;83;74;
70255;PMS5003;57669;52.624;-1.688;2023-02-08T07:26:21;77;69;
70255;PMS5003;57669;52.624;-1.688;2023-02-08T07:28:47;74;66;
70255;PMS5003;57669;52.624;-1.688;2023-02-08T07:31:12;78;74;
70255;PMS5003;57669;52.624;-1.688;2023-02-08T07:33:37;79;75;
70255;PMS5003;57669;52.624;-1.688;2023-02-08T07:36:03;72;68;
70255;PMS5003;57669;52.624;-1.688;2023-02-08T07:38:28;81;74;
70255;PMS5003;57669;52.624;-1.688;2023-02-08T07:40:58;77;75;
70255;PMS5003;57669;52.624;-1.688;2023-02-08T07:43:20;76;70;
70255;PMS5003;57669;52.624;-1.688;2023-02-08T07:45:45;78;74;
70255;PMS5003;57669;52.624;-1.688;2023-02-08T07:48:11;72;68;
70255;PMS5003;57669;52.624;-1.688;2023-02-08T07:50:36;75;75;
70255;PMS5003;57669;52.624;-1.688;2023-02-08T07:53:02;70;65;
70255;PMS5003;57669;52.624;-1.688;2023-02-08T07:55:27;76;75;
70255;PMS5003;57669;52.624;-1.688;2023-02-08T07:57:54;67;66;
70255;PMS5003;57669;52.624;-1.688;2023-02-08T08:00:18;81;78;
70255;PMS5003;57669;52.624;-1.688;2023-02-08T08:02:44;79;72;
70255;PMS5003;57669;52.624;-1.688;2023-02-08T08:05:09;67;65;
70255;PMS5003;57669;52.624;-1.688;2023-02-08T08:07:35;76;70;
70255;PMS5003;57669;52.624;-1.688;2023-02-08T08:10:00;78;73;
70255;PMS5003;57669;52.624;-1.688;2023-02-08T08:12:26;75;71;
70255;PMS5003;57669;52.624;-1.688;2023-02-08T08:14:51;72;68;
70255;PMS5003;57669;52.624;-1.688;2023-02-08T08:17:16;63;61;
70255;PMS5003;57669;52.624;-1.688;2023-02-08T08:19:42;75;69;
70255;PMS5003;57669;52.624;-1.688;2023-02-08T08:22:08;69;66;
70255;PMS5003;57669;52.624;-1.688;2023-02-08T08:24:33;80;73;
70255;PMS5003;57669;52.624;-1.688;2023-02-08T08:26:58;71;68;
70255;PMS5003;57669;52.624;-1.688;2023-02-08T08:29:24;71;67;
70255;PMS5003;57669;52.624;-1.688;2023-02-08T08:31:49;66;63;
70255;PMS5003;57669;52.624;-1.688;2023-02-08T08:34:15;76;71;
70255;PMS5003;57669;52.624;-1.688;2023-02-08T08:36:40;75;68;
70255;PMS5003;57669;52.624;-1.688;2023-02-08T08:39:06;62;61;
70255;PMS5003;57669;52.624;-1.688;2023-02-08T08:41:31;66;65;
70255;PMS5003;57669;52.624;-1.688;2023-02-08T08:43:57;81;75;
70255;PMS5003;57669;52.624;-1.688;2023-02-08T08:46:22;73;69;
70255;PMS5003;57669;52.624;-1.688;2023-02-08T08:48:48;75;68;
70255;PMS5003;57669;52.624;-1.688;2023-02-08T08:51:13;76;73;
70255;PMS5003;57669;52.624;-1.688;2023-02-08T08:53:39;77;74;
70255;PMS5003;57669;52.624;-1.688;2023-02-08T08:56:05;81;75;
70255;PMS5003;57669;52.624;-1.688;2023-02-08T08:58:30;79;76;
70255;PMS5003;57669;52.624;-1.688;2023-02-08T09:00:56;81;77;
70255;PMS5003;57669;52.624;-1.688;2023-02-08T09:03:21;77;75;
70255;PMS5003;57669;52.624;-1.688;2023-02-08T09:05:47;77;70;
70255;PMS5003;57669;52.624;-1.688;2023-02-08T09:08:13;75;70;
70255;PMS5003;57669;52.624;-1.688;2023-02-08T09:10:38;80;78;
70255;PMS5003;57669;52.624;-1.688;2023-02-08T09:13:04;85;78;
70255;PMS5003;57669;52.624;-1.688;2023-02-08T09:15:29;75;71;
70255;PMS5003;57669;52.624;-1.688;2023-02-08T09:17:55;82;79;
70255;PMS5003;57669;52.624;-1.688;2023-02-08T09:20:20;81;74;
70255;PMS5003;57669;52.624;-1.688;2023-02-08T09:22:46;82;75;
70255;PMS5003;57669;52.624;-1.688;2023-02-08T09:25:12;84;81;
70255;PMS5003;57669;52.624;-1.688;2023-02-08T09:27:37;80;74;
70255;PMS5003;57669;52.624;-1.688;2023-02-08T09:30:03;73;71;
70255;PMS5003;57669;52.624;-1.688;2023-02-08T09:32:29;86;82;
70255;PMS5003;57669;52.624;-1.688;2023-02-08T09:34:53;92;87;
70255;PMS5003;57669;52.624;-1.688;2023-02-08T09:37:18;88;87;
70255;PMS5003;57669;52.624;-1.688;2023-02-08T09:39:44;104;93;
70255;PMS5003;57669;52.624;-1.688;2023-02-08T09:42:15;92;89;
70255;PMS5003;57669;52.624;-1.688;2023-02-08T09:44:38;91;87;
70255;PMS5003;57669;52.624;-1.688;2023-02-08T09:47:02;97;87;
70255;PMS5003;57669;52.624;-1.688;2023-02-08T09:49:27;94;88;
70255;PMS5003;57669;52.624;-1.688;2023-02-08T09:51:52;88;77;
70255;PMS5003;57669;52.624;-1.688;2023-02-08T09:54:18;88;83;
70255;PMS5003;57669;52.624;-1.688;2023-02-08T09:56:43;77;76;
70255;PMS5003;57669;52.624;-1.688;2023-02-08T09:59:11;87;84;
70255;PMS5003;57669;52.624;-1.688;2023-02-08T10:01:34;76;71;
70255;PMS5003;57669;52.624;-1.688;2023-02-08T10:04:00;83;81;
70255;PMS5003;57669;52.624;-1.688;2023-02-08T10:06:25;83;80;
70255;PMS5003;57669;52.624;-1.688;2023-02-08T10:08:51;76;69;
70255;PMS5003;57669;52.624;-1.688;2023-02-08T10:11:22;73;69;
70255;PMS5003;57669;52.624;-1.688;2023-02-08T10:13:45;78;75;
70255;PMS5003;57669;52.624;-1.688;2023-02-08T10:16:09;78;73;
70255;PMS5003;57669;52.624;-1.688;2023-02-08T10:18:35;63;62;
70255;PMS5003;57669;52.624;-1.688;2023-02-08T10:21:04;77;72;
70255;PMS5003;57669;52.624;-1.688;2023-02-08T10:23:28;68;66;
70255;PMS5003;57669;52.624;-1.688;2023-02-08T10:25:58;74;68;
70255;PMS5003;57669;52.624;-1.688;2023-02-08T10:28:19;68;65;
70255;PMS5003;57669;52.624;-1.688;2023-02-08T10:30:40;66;64;
70255;PMS5003;57669;52.624;-1.688;2023-02-08T10:33:06;68;66;
70255;PMS5003;57669;52.624;-1.688;2023-02-08T10:35:31;71;65;
70255;PMS5003;57669;52.624;-1.688;2023-02-08T10:37:56;80;74;
70255;PMS5003;57669;52.624;-1.688;2023-02-08T10:40:25;78;73;
70255;PMS5003;57669;52.624;-1.688;2023-02-08T10:42:47;69;61;
70255;PMS5003;57669;52.624;-1.688;2023-02-08T10:45:14;66;62;
70255;PMS5003;57669;52.624;-1.688;2023-02-08T10:47:39;68;65;
70255;PMS5003;57669;52.624;-1.688;2023-02-08T10:50:04;65;63;
70255;PMS5003;57669;52.624;-1.688;2023-02-08T10:52:28;70;68;
70255;PMS5003;57669;52.624;-1.688;2023-02-08T10:54:54;62;57;
70255;PMS5003;57669;52.624;-1.688;2023-02-08T10:57:21;64;60;
70255;PMS5003;57669;52.624;-1.688;2023-02-08T10:59:46;66;61;
70255;PMS5003;57669;52.624;-1.688;2023-02-08T11:02:15;59;58;
70255;PMS5003;57669;52.624;-1.688;2023-02-08T11:04:36;54;52;
70255;PMS5003;57669;52.624;-1.688;2023-02-08T11:07:01;54;54;
70255;PMS5003;57669;52.624;-1.688;2023-02-08T11:09:28;62;58;
70255;PMS5003;57669;52.624;-1.688;2023-02-08T11:11:52;61;58;
70255;PMS5003;57669;52.624;-1.688;2023-02-08T11:14:18;59;55;
70255;PMS5003;57669;52.624;-1.688;2023-02-08T11:16:47;62;58;
70255;PMS5003;57669;52.624;-1.688;2023-02-08T11:19:15;56;53;
70255;PMS5003;57669;52.624;-1.688;2023-02-08T11:21:35;56;52;
70255;PMS5003;57669;52.624;-1.688;2023-02-08T11:24:01;57;53;
70255;PMS5003;57669;52.624;-1.688;2023-02-08T11:26:30;56;51;
70255;PMS5003;57669;52.624;-1.688;2023-02-08T11:31:16;52;48;
70255;PMS5003;57669;52.624;-1.688;2023-02-08T11:33:43;43;39;
70255;PMS5003;57669;52.624;-1.688;2023-02-08T11:36:06;36;35;
70255;PMS5003;57669;52.624;-1.688;2023-02-08T11:38:33;31;31;
70255;PMS5003;57669;52.624;-1.688;2023-02-08T11:40:58;33;32;
70255;PMS5003;57669;52.624;-1.688;2023-02-08T11:43:24;26;25;
70255;PMS5003;57669;52.624;-1.688;2023-02-08T11:45:48;31;27;
70255;PMS5003;57669;52.624;-1.688;2023-02-08T11:48:19;35;33;
70255;PMS5003;57669;52.624;-1.688;2023-02-08T11:50:39;29;28;
70255;PMS5003;57669;52.624;-1.688;2023-02-08T11:53:05;34;31;
70255;PMS5003;57669;52.624;-1.688;2023-02-08T11:55:31;29;28;
70255;PMS5003;57669;52.624;-1.688;2023-02-08T11:57:56;28;28;
70255;PMS5003;57669;52.624;-1.688;2023-02-08T12:00:21;31;29;
70255;PMS5003;57669;52.624;-1.688;2023-02-08T12:02:45;30;30;
70255;PMS5003;57669;52.624;-1.688;2023-02-08T12:05:11;28;27;
70255;PMS5003;57669;52.624;-1.688;2023-02-08T12:07:39;22;22;
70255;PMS5003;57669;52.624;-1.688;2023-02-08T12:12:28;28;26;
70255;PMS5003;57669;52.624;-1.688;2023-02-08T12:14:54;34;33;
70255;PMS5003;57669;52.624;-1.688;2023-02-08T12:17:22;33;29;
70255;PMS5003;57669;52.624;-1.688;2023-02-08T12:22:09;28;23;
70255;PMS5003;57669;52.624;-1.688;2023-02-08T12:24:35;24;23;
70255;PMS5003;57669;52.624;-1.688;2023-02-08T12:27:02;25;24;
70255;PMS5003;57669;52.624;-1.688;2023-02-08T12:29:29;24;24;
70255;PMS5003;57669;52.624;-1.688;2023-02-08T12:31:54;27;26;
70255;PMS5003;57669;52.624;-1.688;2023-02-08T12:34:16;26;24;
70255;PMS5003;57669;52.624;-1.688;2023-02-08T12:36:45;23;22;
70255;PMS5003;57669;52.624;-1.688;2023-02-08T12:39:11;29;26;
70255;PMS5003;57669;52.624;-1.688;2023-02-08T12:41:34;29;26;
70255;PMS5003;57669;52.624;-1.688;2023-02-08T12:43:59;26;25;
70255;PMS5003;57669;52.624;-1.688;2023-02-08T12:46:28;29;27;
70255;PMS5003;57669;52.624;-1.688;2023-02-08T12:48:55;18;18;
70255;PMS5003;57669;52.624;-1.688;2023-02-08T12:51:16;21;19;
70255;PMS5003;57669;52.624;-1.688;2023-02-08T12:53:39;20;20;
70255;PMS5003;57669;52.624;-1.688;2023-02-08T12:56:05;22;20;
70255;PMS5003;57669;52.624;-1.688;2023-02-08T12:58:30;20;19;
70255;PMS5003;57669;52.624;-1.688;2023-02-08T13:00:55;19;19;
70255;PMS5003;57669;52.624;-1.688;2023-02-08T13:03:24;23;22;
70255;PMS5003;57669;52.624;-1.688;2023-02-08T13:05:47;20;19;
70255;PMS5003;57669;52.624;-1.688;2023-02-08T13:08:14;19;18;
70255;PMS5003;57669;52.624;-1.688;2023-02-08T13:10:37;21;19;
70255;PMS5003;57669;52.624;-1.688;2023-02-08T13:13:04;17;16;
70255;PMS5003;57669;52.624;-1.688;2023-02-08T13:15:29;17;14;
70255;PMS5003;57669;52.624;-1.688;2023-02-08T13:17:53;14;13;
70255;PMS5003;57669;52.624;-1.688;2023-02-08T13:20:22;14;12;
70255;PMS5003;57669;52.624;-1.688;2023-02-08T13:22:44;16;16;
70255;PMS5003;57669;52.624;-1.688;2023-02-08T13:25:13;13;12;
70255;PMS5003;57669;52.624;-1.688;2023-02-08T13:27:34;11;11;
70255;PMS5003;57669;52.624;-1.688;2023-02-08T13:29:59;10;9;
70255;PMS5003;57669;52.624;-1.688;2023-02-08T13:32:26;13;13;
70255;PMS5003;57669;52.624;-1.688;2023-02-08T13:34:51;10;9;
70255;PMS5003;57669;52.624;-1.688;2023-02-08T13:37:18;12;11;
70255;PMS5003;57669;52.624;-1.688;2023-02-08T13:39:43;9;9;
70255;PMS5003;57669;52.624;-1.688;2023-02-08T13:44:34;11;11;
70255;PMS5003;57669;52.624;-1.688;2023-02-08T13:46:59;12;11;
70255;PMS5003;57669;52.624;-1.688;2023-02-08T13:51:51;15;14;
70255;PMS5003;57669;52.624;-1.688;2023-02-08T13:54:16;14;12;
70255;PMS5003;57669;52.624;-1.688;2023-02-08T13:56:42;16;16;
70255;PMS5003;57669;52.624;-1.688;2023-02-08T14:01:33;12;11;
70255;PMS5003;57669;52.624;-1.688;2023-02-08T14:06:24;13;12;
70255;PMS5003;57669;52.624;-1.688;2023-02-08T14:08:52;13;12;
70255;PMS5003;57669;52.624;-1.688;2023-02-08T14:11:16;14;13;
70255;PMS5003;57669;52.624;-1.688;2023-02-08T14:13:44;14;13;
70255;PMS5003;57669;52.624;-1.688;2023-02-08T14:18:32;9;9;
70255;PMS5003;57669;52.624;-1.688;2023-02-08T14:21:00;10;10;
70255;PMS5003;57669;52.624;-1.688;2023-02-08T14:23:23;11;11;
70255;PMS5003;57669;52.624;-1.688;2023-02-08T14:25:49;11;10;
70255;PMS5003;57669;52.624;-1.688;2023-02-08T14:30:40;10;9;
70255;PMS5003;57669;52.624;-1.688;2023-02-08T14:33:08;9;8;
70255;PMS5003;57669;52.624;-1.688;2023-02-08T14:35:32;11;9;
70255;PMS5003;57669;52.624;-1.688;2023-02-08T14:42:52;11;9;
70255;PMS5003;57669;52.624;-1.688;2023-02-08T14:45:18;11;10;
70255;PMS5003;57669;52.624;-1.688;2023-02-08T14:50:11;11;10;
70255;PMS5003;57669;52.624;-1.688;2023-02-08T14:52:31;11;11;
70255;PMS5003;57669;52.624;-1.688;2023-02-08T14:54:58;14;12;
70255;PMS5003;57669;52.624;-1.688;2023-02-08T14:57:23;15;14;
70255;PMS5003;57669;52.624;-1.688;2023-02-08T14:59:48;12;11;
70255;PMS5003;57669;52.624;-1.688;2023-02-08T15:02:14;10;10;
70255;PMS5003;57669;52.624;-1.688;2023-02-08T15:07:09;11;11;
70255;PMS5003;57669;52.624;-1.688;2023-02-08T15:09:31;12;11;
70255;PMS5003;57669;52.624;-1.688;2023-02-08T15:11:58;11;9;
70255;PMS5003;57669;52.624;-1.688;2023-02-08T15:14:21;12;12;
70255;PMS5003;57669;52.624;-1.688;2023-02-08T15:16:46;13;12;
70255;PMS5003;57669;52.624;-1.688;2023-02-08T15:19:17;10;8;
70255;PMS5003;57669;52.624;-1.688;2023-02-08T15:21:38;12;12;
70255;PMS5003;57669;52.624;-1.688;2023-02-08T15:24:10;15;12;
70255;PMS5003;57669;52.624;-1.688;2023-02-08T15:26:29;11;11;
70255;PMS5003;57669;52.624;-1.688;2023-02-08T15:28:55;18;18;
70255;PMS5003;57669;52.624;-1.688;2023-02-08T15:31:21;15;13;
70255;PMS5003;57669;52.624;-1.688;2023-02-08T15:33:45;18;16;
70255;PMS5003;57669;52.624;-1.688;2023-02-08T15:36:13;17;17;
70255;PMS5003;57669;52.624;-1.688;2023-02-08T15:38:37;14;14;
70255;PMS5003;57669;52.624;-1.688;2023-02-08T15:41:04;22;21;
70255;PMS5003;57669;52.624;-1.688;2023-02-08T15:43:28;18;16;
70255;PMS5003;57669;52.624;-1.688;2023-02-08T15:45:55;12;12;
70255;PMS5003;57669;52.624;-1.688;2023-02-08T15:48:19;17;15;
70255;PMS5003;57669;52.624;-1.688;2023-02-08T15:50:44;16;15;
70255;PMS5003;57669;52.624;-1.688;2023-02-08T15:53:10;15;14;
70255;PMS5003;57669;52.624;-1.688;2023-02-08T15:55:38;20;20;
70255;PMS5003;57669;52.624;-1.688;2023-02-08T15:58:02;17;17;
70255;PMS5003;57669;52.624;-1.688;2023-02-08T16:00:27;18;17;
70255;PMS5003;57669;52.624;-1.688;2023-02-08T16:02:53;14;14;
70255;PMS5003;57669;52.624;-1.688;2023-02-08T16:05:18;17;17;
70255;PMS5003;57669;52.624;-1.688;2023-02-08T16:07:43;18;15;
70255;PMS5003;57669;52.624;-1.688;2023-02-08T16:12:34;14;14;
70255;PMS5003;57669;52.624;-1.688;2023-02-08T16:15:00;15;15;
70255;PMS5003;57669;52.624;-1.688;2023-02-08T16:17:27;19;18;
70255;PMS5003;57669;52.624;-1.688;2023-02-08T16:19:50;14;14;
70255;PMS5003;57669;52.624;-1.688;2023-02-08T16:24:41;17;15;
70255;PMS5003;57669;52.624;-1.688;2023-02-08T16:29:33;14;12;
70255;PMS5003;57669;52.624;-1.688;2023-02-08T16:31:59;20;18;
70255;PMS5003;57669;52.624;-1.688;2023-02-08T16:34:24;20;20;
70255;PMS5003;57669;52.624;-1.688;2023-02-08T16:36:49;25;25;
70255;PMS5003;57669;52.624;-1.688;2023-02-08T16:46:30;15;15;